sensor_id;sensor_type;location;lat;lon;timestamp;temperature;humidity
6206;DHT22;3136;48.788;9.772;2022-08-20T00:00:38;17.00;98.40
6206;DHT22;3136;48.788;9.772;2022-08-20T00:03:14;17.00;98.40
6206;DHT22;3136;48.788;9.772;2022-08-20T00:05:46;17.00;98.40
6206;DHT22;3136;48.788;9.772;2022-08-20T00:08:12;17.00;98.50
6206;DHT22;3136;48.788;9.772;2022-08-20T00:10:41;16.90;98.40
6206;DHT22;3136;48.788;9.772;2022-08-20T00:13:09;16.90;98.50
6206;DHT22;3136;48.788;9.772;2022-08-20T00:15:36;16.80;98.40
6206;DHT22;3136;48.788;9.772;2022-08-20T00:18:03;16.90;98.50
6206;DHT22;3136;48.788;9.772;2022-08-20T00:20:32;16.90;98.50
6206;DHT22;3136;48.788;9.772;2022-08-20T00:22:58;16.80;98.50
6206;DHT22;3136;48.788;9.772;2022-08-20T00:25:25;16.70;98.40
6206;DHT22;3136;48.788;9.772;2022-08-20T00:27:50;16.80;98.50
6206;DHT22;3136;48.788;9.772;2022-08-20T00:30:16;16.80;98.40
6206;DHT22;3136;48.788;9.772;2022-08-20T00:32:54;16.70;98.40
6206;DHT22;3136;48.788;9.772;2022-08-20T00:35:22;16.80;98.50
6206;DHT22;3136;48.788;9.772;2022-08-20T00:37:49;16.80;98.60
6206;DHT22;3136;48.788;9.772;2022-08-20T00:40:19;16.80;98.60
6206;DHT22;3136;48.788;9.772;2022-08-20T00:42:48;16.60;98.60
6206;DHT22;3136;48.788;9.772;2022-08-20T00:45:15;16.70;98.60
6206;DHT22;3136;48.788;9.772;2022-08-20T00:47:41;16.80;98.70
6206;DHT22;3136;48.788;9.772;2022-08-20T00:50:09;16.70;98.60
6206;DHT22;3136;48.788;9.772;2022-08-20T00:52:38;16.60;98.60
6206;DHT22;3136;48.788;9.772;2022-08-20T00:55:07;16.70;98.60
6206;DHT22;3136;48.788;9.772;2022-08-20T00:57:34;16.60;98.60
6206;DHT22;3136;48.788;9.772;2022-08-20T01:00:08;18.50;99.50
6206;DHT22;3136;48.788;9.772;2022-08-20T01:02:36;16.70;98.70
6206;DHT22;3136;48.788;9.772;2022-08-20T01:05:03;16.60;98.70
6206;DHT22;3136;48.788;9.772;2022-08-20T01:07:30;16.60;98.70
6206;DHT22;3136;48.788;9.772;2022-08-20T01:10:17;16.60;98.70
6206;DHT22;3136;48.788;9.772;2022-08-20T01:12:46;16.60;98.80
6206;DHT22;3136;48.788;9.772;2022-08-20T01:15:15;16.70;98.90
6206;DHT22;3136;48.788;9.772;2022-08-20T01:17:45;16.60;99.00
6206;DHT22;3136;48.788;9.772;2022-08-20T01:20:16;16.60;99.00
6206;DHT22;3136;48.788;9.772;2022-08-20T01:25:45;16.60;99.10
6206;DHT22;3136;48.788;9.772;2022-08-20T01:28:17;16.60;99.20
6206;DHT22;3136;48.788;9.772;2022-08-20T01:30:44;16.60;99.40
6206;DHT22;3136;48.788;9.772;2022-08-20T01:33:10;16.60;99.60
6206;DHT22;3136;48.788;9.772;2022-08-20T01:35:40;16.70;99.80
6206;DHT22;3136;48.788;9.772;2022-08-20T01:38:07;16.60;99.90
6206;DHT22;3136;48.788;9.772;2022-08-20T01:40:58;16.50;99.80
6206;DHT22;3136;48.788;9.772;2022-08-20T01:43:27;16.50;99.90
6206;DHT22;3136;48.788;9.772;2022-08-20T01:45:53;16.60;99.90
6206;DHT22;3136;48.788;9.772;2022-08-20T01:48:19;16.60;99.90
6206;DHT22;3136;48.788;9.772;2022-08-20T01:51:09;16.60;99.90
6206;DHT22;3136;48.788;9.772;2022-08-20T01:53:38;16.60;99.90
6206;DHT22;3136;48.788;9.772;2022-08-20T01:56:09;16.60;99.90
6206;DHT22;3136;48.788;9.772;2022-08-20T01:58:38;16.60;99.90
6206;DHT22;3136;48.788;9.772;2022-08-20T02:01:05;16.60;99.90
6206;DHT22;3136;48.788;9.772;2022-08-20T02:03:30;16.60;99.90
6206;DHT22;3136;48.788;9.772;2022-08-20T02:05:59;16.50;99.90
6206;DHT22;3136;48.788;9.772;2022-08-20T02:08:24;16.70;99.90
6206;DHT22;3136;48.788;9.772;2022-08-20T02:10:50;16.60;99.90
6206;DHT22;3136;48.788;9.772;2022-08-20T02:13:16;16.60;99.90
6206;DHT22;3136;48.788;9.772;2022-08-20T02:15:41;16.60;99.90
6206;DHT22;3136;48.788;9.772;2022-08-20T02:18:10;16.60;99.90
6206;DHT22;3136;48.788;9.772;2022-08-20T02:20:39;16.60;99.90
6206;DHT22;3136;48.788;9.772;2022-08-20T02:23:07;16.70;99.90
6206;DHT22;3136;48.788;9.772;2022-08-20T02:25:34;16.60;99.90
6206;DHT22;3136;48.788;9.772;2022-08-20T02:28:05;16.60;99.90
6206;DHT22;3136;48.788;9.772;2022-08-20T02:30:35;16.60;99.90
6206;DHT22;3136;48.788;9.772;2022-08-20T02:33:04;16.60;99.90
6206;DHT22;3136;48.788;9.772;2022-08-20T02:35:30;16.60;99.90
6206;DHT22;3136;48.788;9.772;2022-08-20T02:37:56;16.50;99.90
6206;DHT22;3136;48.788;9.772;2022-08-20T02:40:25;16.50;99.90
6206;DHT22;3136;48.788;9.772;2022-08-20T02:42:51;16.40;99.90
6206;DHT22;3136;48.788;9.772;2022-08-20T02:45:17;16.40;99.90
6206;DHT22;3136;48.788;9.772;2022-08-20T02:47:44;16.40;99.90
6206;DHT22;3136;48.788;9.772;2022-08-20T02:50:15;17.50;99.90
6206;DHT22;3136;48.788;9.772;2022-08-20T02:52:42;16.30;99.90
6206;DHT22;3136;48.788;9.772;2022-08-20T02:55:09;15.20;99.90
6206;DHT22;3136;48.788;9.772;2022-08-20T02:57:35;16.30;99.90
6206;DHT22;3136;48.788;9.772;2022-08-20T03:00:15;16.30;99.90
6206;DHT22;3136;48.788;9.772;2022-08-20T03:02:41;16.30;99.90
6206;DHT22;3136;48.788;9.772;2022-08-20T03:05:07;16.30;99.90
6206;DHT22;3136;48.788;9.772;2022-08-20T03:07:40;16.20;99.90
6206;DHT22;3136;48.788;9.772;2022-08-20T03:10:06;16.20;99.90
6206;DHT22;3136;48.788;9.772;2022-08-20T03:12:33;16.20;99.90
6206;DHT22;3136;48.788;9.772;2022-08-20T03:14:58;16.20;99.90
6206;DHT22;3136;48.788;9.772;2022-08-20T03:17:24;16.10;99.90
6206;DHT22;3136;48.788;9.772;2022-08-20T03:19:50;16.10;99.90
6206;DHT22;3136;48.788;9.772;2022-08-20T03:22:15;16.10;99.90
6206;DHT22;3136;48.788;9.772;2022-08-20T03:24:41;16.10;99.90
6206;DHT22;3136;48.788;9.772;2022-08-20T03:27:06;16.10;99.90
6206;DHT22;3136;48.788;9.772;2022-08-20T03:29:32;16.10;99.90
6206;DHT22;3136;48.788;9.772;2022-08-20T03:31:57;16.20;99.90
6206;DHT22;3136;48.788;9.772;2022-08-20T03:34:23;16.20;99.90
6206;DHT22;3136;48.788;9.772;2022-08-20T03:36:49;16.10;99.90
6206;DHT22;3136;48.788;9.772;2022-08-20T03:39:15;16.10;99.90
6206;DHT22;3136;48.788;9.772;2022-08-20T03:41:40;16.00;99.90
6206;DHT22;3136;48.788;9.772;2022-08-20T03:44:06;16.10;99.90
6206;DHT22;3136;48.788;9.772;2022-08-20T03:46:32;16.00;99.90
6206;DHT22;3136;48.788;9.772;2022-08-20T03:48:58;16.00;99.90
6206;DHT22;3136;48.788;9.772;2022-08-20T03:51:23;16.00;99.90
6206;DHT22;3136;48.788;9.772;2022-08-20T03:53:49;16.00;99.90
6206;DHT22;3136;48.788;9.772;2022-08-20T03:56:15;15.90;99.90
6206;DHT22;3136;48.788;9.772;2022-08-20T03:58:41;15.90;99.90
6206;DHT22;3136;48.788;9.772;2022-08-20T04:01:07;15.90;99.90
6206;DHT22;3136;48.788;9.772;2022-08-20T04:03:33;15.90;99.90
6206;DHT22;3136;48.788;9.772;2022-08-20T04:06:00;15.90;99.90
6206;DHT22;3136;48.788;9.772;2022-08-20T04:08:27;16.00;99.90
6206;DHT22;3136;48.788;9.772;2022-08-20T04:10:54;15.90;99.90
6206;DHT22;3136;48.788;9.772;2022-08-20T04:13:22;15.90;99.90
6206;DHT22;3136;48.788;9.772;2022-08-20T04:15:49;15.90;99.90
6206;DHT22;3136;48.788;9.772;2022-08-20T04:18:15;15.80;99.90
6206;DHT22;3136;48.788;9.772;2022-08-20T04:20:45;15.80;99.90
6206;DHT22;3136;48.788;9.772;2022-08-20T04:23:11;15.80;99.90
6206;DHT22;3136;48.788;9.772;2022-08-20T04:25:39;15.90;99.90
6206;DHT22;3136;48.788;9.772;2022-08-20T04:28:07;15.90;99.90
6206;DHT22;3136;48.788;9.772;2022-08-20T04:30:33;16.00;99.90
6206;DHT22;3136;48.788;9.772;2022-08-20T04:32:59;15.80;99.90
6206;DHT22;3136;48.788;9.772;2022-08-20T04:35:26;15.90;99.90
6206;DHT22;3136;48.788;9.772;2022-08-20T04:38:00;15.90;99.90
6206;DHT22;3136;48.788;9.772;2022-08-20T04:40:26;15.90;99.90
6206;DHT22;3136;48.788;9.772;2022-08-20T04:43:10;15.90;99.90
6206;DHT22;3136;48.788;9.772;2022-08-20T04:45:36;15.90;99.90
6206;DHT22;3136;48.788;9.772;2022-08-20T04:48:04;15.80;99.90
6206;DHT22;3136;48.788;9.772;2022-08-20T04:50:35;15.80;99.90
6206;DHT22;3136;48.788;9.772;2022-08-20T04:53:08;15.80;99.90
6206;DHT22;3136;48.788;9.772;2022-08-20T04:55:36;15.80;99.90
6206;DHT22;3136;48.788;9.772;2022-08-20T04:58:05;15.90;99.90
6206;DHT22;3136;48.788;9.772;2022-08-20T05:00:31;15.90;99.90
6206;DHT22;3136;48.788;9.772;2022-08-20T05:02:57;15.90;99.90
6206;DHT22;3136;48.788;9.772;2022-08-20T05:05:23;15.90;99.90
6206;DHT22;3136;48.788;9.772;2022-08-20T05:07:48;15.90;99.90
6206;DHT22;3136;48.788;9.772;2022-08-20T05:10:16;15.90;99.90
6206;DHT22;3136;48.788;9.772;2022-08-20T05:12:42;15.90;99.90
6206;DHT22;3136;48.788;9.772;2022-08-20T05:15:10;15.90;99.90
6206;DHT22;3136;48.788;9.772;2022-08-20T05:17:37;16.00;99.90
6206;DHT22;3136;48.788;9.772;2022-08-20T05:20:04;16.00;99.90
6206;DHT22;3136;48.788;9.772;2022-08-20T05:22:30;16.00;99.90
6206;DHT22;3136;48.788;9.772;2022-08-20T05:24:56;15.90;99.90
6206;DHT22;3136;48.788;9.772;2022-08-20T05:27:24;16.10;99.90
6206;DHT22;3136;48.788;9.772;2022-08-20T05:29:52;18.10;99.90
6206;DHT22;3136;48.788;9.772;2022-08-20T05:32:19;16.20;99.90
6206;DHT22;3136;48.788;9.772;2022-08-20T05:34:44;16.20;99.90
6206;DHT22;3136;48.788;9.772;2022-08-20T05:37:10;16.20;99.90
6206;DHT22;3136;48.788;9.772;2022-08-20T05:39:36;16.20;99.90
6206;DHT22;3136;48.788;9.772;2022-08-20T05:42:01;16.20;99.90
6206;DHT22;3136;48.788;9.772;2022-08-20T05:44:27;16.30;99.90
6206;DHT22;3136;48.788;9.772;2022-08-20T05:46:52;16.30;99.90
6206;DHT22;3136;48.788;9.772;2022-08-20T05:49:20;16.30;99.90
6206;DHT22;3136;48.788;9.772;2022-08-20T05:51:46;16.40;99.90
6206;DHT22;3136;48.788;9.772;2022-08-20T05:54:12;16.40;99.90
6206;DHT22;3136;48.788;9.772;2022-08-20T05:56:37;16.50;99.90
6206;DHT22;3136;48.788;9.772;2022-08-20T05:59:05;16.60;99.90
6206;DHT22;3136;48.788;9.772;2022-08-20T06:01:33;16.60;99.90
6206;DHT22;3136;48.788;9.772;2022-08-20T06:03:59;16.60;99.90
6206;DHT22;3136;48.788;9.772;2022-08-20T06:06:44;16.60;99.90
6206;DHT22;3136;48.788;9.772;2022-08-20T06:09:10;16.70;99.90
6206;DHT22;3136;48.788;9.772;2022-08-20T06:11:35;16.80;99.90
6206;DHT22;3136;48.788;9.772;2022-08-20T06:14:01;16.80;99.90
6206;DHT22;3136;48.788;9.772;2022-08-20T06:16:27;16.80;99.90
6206;DHT22;3136;48.788;9.772;2022-08-20T06:18:52;16.90;99.90
6206;DHT22;3136;48.788;9.772;2022-08-20T06:21:18;16.90;99.90
6206;DHT22;3136;48.788;9.772;2022-08-20T06:23:43;16.90;99.90
6206;DHT22;3136;48.788;9.772;2022-08-20T06:26:10;17.00;99.90
6206;DHT22;3136;48.788;9.772;2022-08-20T06:28:35;17.00;99.90
6206;DHT22;3136;48.788;9.772;2022-08-20T06:31:01;16.90;99.90
6206;DHT22;3136;48.788;9.772;2022-08-20T06:33:27;16.90;99.90
6206;DHT22;3136;48.788;9.772;2022-08-20T06:35:53;16.90;99.90
6206;DHT22;3136;48.788;9.772;2022-08-20T06:38:19;16.90;99.90
6206;DHT22;3136;48.788;9.772;2022-08-20T06:40:45;17.00;99.90
6206;DHT22;3136;48.788;9.772;2022-08-20T06:43:11;17.00;99.90
6206;DHT22;3136;48.788;9.772;2022-08-20T06:45:38;17.10;99.90
6206;DHT22;3136;48.788;9.772;2022-08-20T06:48:13;17.30;99.90
6206;DHT22;3136;48.788;9.772;2022-08-20T06:50:42;17.20;99.90
6206;DHT22;3136;48.788;9.772;2022-08-20T06:53:09;17.40;99.90
6206;DHT22;3136;48.788;9.772;2022-08-20T06:55:36;16.20;99.90
6206;DHT22;3136;48.788;9.772;2022-08-20T06:58:06;17.40;99.90
6206;DHT22;3136;48.788;9.772;2022-08-20T07:00:33;17.60;99.90
6206;DHT22;3136;48.788;9.772;2022-08-20T07:03:00;17.50;99.90
6206;DHT22;3136;48.788;9.772;2022-08-20T07:05:27;17.50;99.90
6206;DHT22;3136;48.788;9.772;2022-08-20T07:07:53;17.60;99.90
6206;DHT22;3136;48.788;9.772;2022-08-20T07:10:20;17.60;99.90
6206;DHT22;3136;48.788;9.772;2022-08-20T07:12:46;17.70;99.90
6206;DHT22;3136;48.788;9.772;2022-08-20T07:15:14;17.60;99.90
6206;DHT22;3136;48.788;9.772;2022-08-20T07:17:40;17.70;99.90
6206;DHT22;3136;48.788;9.772;2022-08-20T07:20:09;17.70;99.90
6206;DHT22;3136;48.788;9.772;2022-08-20T07:22:35;17.80;99.90
6206;DHT22;3136;48.788;9.772;2022-08-20T07:25:03;17.80;99.90
6206;DHT22;3136;48.788;9.772;2022-08-20T07:27:29;17.90;99.90
6206;DHT22;3136;48.788;9.772;2022-08-20T07:29:54;18.00;99.90
6206;DHT22;3136;48.788;9.772;2022-08-20T07:32:39;18.10;99.90
6206;DHT22;3136;48.788;9.772;2022-08-20T07:35:08;18.30;99.90
6206;DHT22;3136;48.788;9.772;2022-08-20T07:37:42;18.50;99.90
6206;DHT22;3136;48.788;9.772;2022-08-20T07:40:19;18.50;99.90
6206;DHT22;3136;48.788;9.772;2022-08-20T07:42:45;18.40;99.90
6206;DHT22;3136;48.788;9.772;2022-08-20T07:45:15;18.40;99.90
6206;DHT22;3136;48.788;9.772;2022-08-20T07:47:45;18.40;99.90
6206;DHT22;3136;48.788;9.772;2022-08-20T07:50:14;18.40;99.90
6206;DHT22;3136;48.788;9.772;2022-08-20T07:52:39;18.40;99.90
6206;DHT22;3136;48.788;9.772;2022-08-20T07:55:08;18.50;99.90
6206;DHT22;3136;48.788;9.772;2022-08-20T07:57:34;18.50;99.90
6206;DHT22;3136;48.788;9.772;2022-08-20T08:00:01;18.50;99.90
6206;DHT22;3136;48.788;9.772;2022-08-20T08:02:27;18.50;99.10
6206;DHT22;3136;48.788;9.772;2022-08-20T08:04:53;18.50;98.70
6206;DHT22;3136;48.788;9.772;2022-08-20T08:07:20;18.50;98.70
6206;DHT22;3136;48.788;9.772;2022-08-20T08:09:48;18.60;99.40
6206;DHT22;3136;48.788;9.772;2022-08-20T08:12:14;18.60;99.70
6206;DHT22;3136;48.788;9.772;2022-08-20T08:14:43;18.60;99.60
6206;DHT22;3136;48.788;9.772;2022-08-20T08:17:10;18.60;99.10
6206;DHT22;3136;48.788;9.772;2022-08-20T08:19:41;18.70;99.00
6206;DHT22;3136;48.788;9.772;2022-08-20T08:22:10;18.60;98.10
6206;DHT22;3136;48.788;9.772;2022-08-20T08:24:37;18.60;98.20
6206;DHT22;3136;48.788;9.772;2022-08-20T08:27:03;18.70;98.50
6206;DHT22;3136;48.788;9.772;2022-08-20T08:29:28;18.70;97.80
6206;DHT22;3136;48.788;9.772;2022-08-20T08:31:55;18.70;96.90
6206;DHT22;3136;48.788;9.772;2022-08-20T08:34:21;18.80;97.00
6206;DHT22;3136;48.788;9.772;2022-08-20T08:36:50;18.70;96.40
6206;DHT22;3136;48.788;9.772;2022-08-20T08:39:16;18.70;96.50
6206;DHT22;3136;48.788;9.772;2022-08-20T08:41:45;18.80;96.90
6206;DHT22;3136;48.788;9.772;2022-08-20T08:44:23;18.90;97.50
6206;DHT22;3136;48.788;9.772;2022-08-20T08:46:58;19.00;98.00
6206;DHT22;3136;48.788;9.772;2022-08-20T08:49:32;19.20;98.90
6206;DHT22;3136;48.788;9.772;2022-08-20T08:52:02;19.30;98.80
6206;DHT22;3136;48.788;9.772;2022-08-20T08:54:33;19.40;98.30
6206;DHT22;3136;48.788;9.772;2022-08-20T08:57:00;19.40;96.00
6206;DHT22;3136;48.788;9.772;2022-08-20T08:59:29;19.30;91.70
6206;DHT22;3136;48.788;9.772;2022-08-20T09:01:57;19.40;92.30
6206;DHT22;3136;48.788;9.772;2022-08-20T09:04:31;19.40;92.80
6206;DHT22;3136;48.788;9.772;2022-08-20T09:06:58;19.50;92.50
6206;DHT22;3136;48.788;9.772;2022-08-20T09:09:27;19.40;86.60
6206;DHT22;3136;48.788;9.772;2022-08-20T09:11:56;19.50;84.20
6206;DHT22;3136;48.788;9.772;2022-08-20T09:14:25;19.40;89.30
6206;DHT22;3136;48.788;9.772;2022-08-20T09:16:51;19.50;90.70
6206;DHT22;3136;48.788;9.772;2022-08-20T09:19:17;19.70;90.60
6206;DHT22;3136;48.788;9.772;2022-08-20T09:21:42;19.70;89.10
6206;DHT22;3136;48.788;9.772;2022-08-20T09:24:08;19.60;77.80
6206;DHT22;3136;48.788;9.772;2022-08-20T09:26:34;19.80;78.80
6206;DHT22;3136;48.788;9.772;2022-08-20T09:28:59;19.90;82.80
6206;DHT22;3136;48.788;9.772;2022-08-20T09:31:25;20.10;85.60
6206;DHT22;3136;48.788;9.772;2022-08-20T09:33:51;20.40;85.40
6206;DHT22;3136;48.788;9.772;2022-08-20T09:36:17;20.50;73.90
6206;DHT22;3136;48.788;9.772;2022-08-20T09:38:43;20.60;71.50
6206;DHT22;3136;48.788;9.772;2022-08-20T09:41:08;20.90;71.80
6206;DHT22;3136;48.788;9.772;2022-08-20T09:43:34;20.80;67.30
6206;DHT22;3136;48.788;9.772;2022-08-20T09:45:59;20.80;57.40
6206;DHT22;3136;48.788;9.772;2022-08-20T09:48:25;20.80;57.20
6206;DHT22;3136;48.788;9.772;2022-08-20T09:50:50;20.80;46.40
6206;DHT22;3136;48.788;9.772;2022-08-20T09:53:17;20.80;48.90
6206;DHT22;3136;48.788;9.772;2022-08-20T09:55:45;20.90;54.50
6206;DHT22;3136;48.788;9.772;2022-08-20T10:01:07;21.10;50.20
6206;DHT22;3136;48.788;9.772;2022-08-20T10:03:33;21.20;43.20
6206;DHT22;3136;48.788;9.772;2022-08-20T10:05:59;21.20;27.00
6206;DHT22;3136;48.788;9.772;2022-08-20T10:08:25;21.20;34.30
6206;DHT22;3136;48.788;9.772;2022-08-20T10:10:51;21.20;26.80
6206;DHT22;3136;48.788;9.772;2022-08-20T10:13:17;21.30;33.60
6206;DHT22;3136;48.788;9.772;2022-08-20T10:15:42;21.50;26.70
6206;DHT22;3136;48.788;9.772;2022-08-20T10:18:08;21.60;27.70
6206;DHT22;3136;48.788;9.772;2022-08-20T10:20:34;21.50;3.80
6206;DHT22;3136;48.788;9.772;2022-08-20T10:23:00;21.40;14.10
6206;DHT22;3136;48.788;9.772;2022-08-20T10:25:25;21.20;16.50
6206;DHT22;3136;48.788;9.772;2022-08-20T10:27:53;21.20;12.00
6206;DHT22;3136;48.788;9.772;2022-08-20T10:30:19;21.30;18.80
6206;DHT22;3136;48.788;9.772;2022-08-20T10:32:45;21.60;17.70
6206;DHT22;3136;48.788;9.772;2022-08-20T10:35:11;21.80;20.90
6206;DHT22;3136;48.788;9.772;2022-08-20T10:37:36;22.10;9.10
6206;DHT22;3136;48.788;9.772;2022-08-20T10:40:03;22.30;1.00
6206;DHT22;3136;48.788;9.772;2022-08-20T10:42:29;22.30;1.00
6206;DHT22;3136;48.788;9.772;2022-08-20T10:44:54;22.30;1.00
6206;DHT22;3136;48.788;9.772;2022-08-20T10:47:27;22.50;1.00
6206;DHT22;3136;48.788;9.772;2022-08-20T10:49:54;22.90;1.00
6206;DHT22;3136;48.788;9.772;2022-08-20T10:52:21;23.80;1.00
6206;DHT22;3136;48.788;9.772;2022-08-20T10:54:47;24.70;1.00
6206;DHT22;3136;48.788;9.772;2022-08-20T10:57:15;24.80;1.00
6206;DHT22;3136;48.788;9.772;2022-08-20T10:59:43;24.40;1.00
6206;DHT22;3136;48.788;9.772;2022-08-20T11:02:09;23.60;1.00
6206;DHT22;3136;48.788;9.772;2022-08-20T11:04:35;22.70;1.00
6206;DHT22;3136;48.788;9.772;2022-08-20T11:07:18;22.10;1.00
6206;DHT22;3136;48.788;9.772;2022-08-20T11:09:45;21.10;1.00
6206;DHT22;3136;48.788;9.772;2022-08-20T11:12:11;20.60;9.30
6206;DHT22;3136;48.788;9.772;2022-08-20T11:14:37;20.20;25.60
6206;DHT22;3136;48.788;9.772;2022-08-20T11:17:03;19.90;33.00
6206;DHT22;3136;48.788;9.772;2022-08-20T11:19:28;19.70;46.30
6206;DHT22;3136;48.788;9.772;2022-08-20T11:21:55;19.60;55.30
6206;DHT22;3136;48.788;9.772;2022-08-20T11:24:20;19.50;56.80
6206;DHT22;3136;48.788;9.772;2022-08-20T11:26:47;19.30;53.00
6206;DHT22;3136;48.788;9.772;2022-08-20T11:29:14;19.30;53.90
6206;DHT22;3136;48.788;9.772;2022-08-20T11:31:39;19.20;57.50
6206;DHT22;3136;48.788;9.772;2022-08-20T11:34:05;19.20;65.10
6206;DHT22;3136;48.788;9.772;2022-08-20T11:36:31;19.10;70.10
6206;DHT22;3136;48.788;9.772;2022-08-20T11:38:57;19.20;74.70
6206;DHT22;3136;48.788;9.772;2022-08-20T11:41:22;19.20;78.10
6206;DHT22;3136;48.788;9.772;2022-08-20T11:43:48;19.30;78.00
6206;DHT22;3136;48.788;9.772;2022-08-20T11:46:13;19.30;77.00
6206;DHT22;3136;48.788;9.772;2022-08-20T11:48:39;19.40;81.20
6206;DHT22;3136;48.788;9.772;2022-08-20T11:51:05;19.50;82.80
6206;DHT22;3136;48.788;9.772;2022-08-20T11:53:30;19.60;84.40
6206;DHT22;3136;48.788;9.772;2022-08-20T11:55:56;19.70;80.20
6206;DHT22;3136;48.788;9.772;2022-08-20T11:58:22;19.70;78.40
6206;DHT22;3136;48.788;9.772;2022-08-20T12:00:47;20.00;81.50
6206;DHT22;3136;48.788;9.772;2022-08-20T12:03:13;20.10;57.20
6206;DHT22;3136;48.788;9.772;2022-08-20T12:05:42;20.00;61.50
6206;DHT22;3136;48.788;9.772;2022-08-20T12:08:08;20.40;70.30
6206;DHT22;3136;48.788;9.772;2022-08-20T12:10:35;20.80;72.90
6206;DHT22;3136;48.788;9.772;2022-08-20T12:13:01;21.00;49.00
6206;DHT22;3136;48.788;9.772;2022-08-20T12:15:26;21.00;44.30
6206;DHT22;3136;48.788;9.772;2022-08-20T12:17:53;21.10;49.60
6206;DHT22;3136;48.788;9.772;2022-08-20T12:20:19;21.20;52.20
6206;DHT22;3136;48.788;9.772;2022-08-20T12:22:45;21.40;52.00
6206;DHT22;3136;48.788;9.772;2022-08-20T12:25:11;21.50;43.50
6206;DHT22;3136;48.788;9.772;2022-08-20T12:27:38;21.50;42.40
6206;DHT22;3136;48.788;9.772;2022-08-20T12:30:08;21.40;41.10
6206;DHT22;3136;48.788;9.772;2022-08-20T12:32:34;21.40;47.20
6206;DHT22;3136;48.788;9.772;2022-08-20T12:35:00;21.90;61.00
6206;DHT22;3136;48.788;9.772;2022-08-20T12:37:28;22.50;33.40
6206;DHT22;3136;48.788;9.772;2022-08-20T12:39:56;22.70;16.40
6206;DHT22;3136;48.788;9.772;2022-08-20T12:42:22;22.50;1.00
6206;DHT22;3136;48.788;9.772;2022-08-20T12:44:48;22.10;12.50
6206;DHT22;3136;48.788;9.772;2022-08-20T12:47:18;21.70;7.00
6206;DHT22;3136;48.788;9.772;2022-08-20T12:49:47;21.30;13.10
6206;DHT22;3136;48.788;9.772;2022-08-20T12:52:15;21.00;19.90
6206;DHT22;3136;48.788;9.772;2022-08-20T12:54:41;20.60;21.50
6206;DHT22;3136;48.788;9.772;2022-08-20T12:57:11;20.40;31.10
6206;DHT22;3136;48.788;9.772;2022-08-20T12:59:37;20.20;37.90
6206;DHT22;3136;48.788;9.772;2022-08-20T13:02:02;20.00;46.90
6206;DHT22;3136;48.788;9.772;2022-08-20T13:04:28;20.10;55.40
6206;DHT22;3136;48.788;9.772;2022-08-20T13:07:02;20.00;57.20
6206;DHT22;3136;48.788;9.772;2022-08-20T13:09:28;20.00;61.10
6206;DHT22;3136;48.788;9.772;2022-08-20T13:11:54;19.90;55.90
6206;DHT22;3136;48.788;9.772;2022-08-20T13:14:20;19.80;59.30
6206;DHT22;3136;48.788;9.772;2022-08-20T13:16:45;19.80;63.40
6206;DHT22;3136;48.788;9.772;2022-08-20T13:19:11;19.90;63.90
6206;DHT22;3136;48.788;9.772;2022-08-20T13:21:36;19.70;60.50
6206;DHT22;3136;48.788;9.772;2022-08-20T13:24:02;19.80;65.30
6206;DHT22;3136;48.788;9.772;2022-08-20T13:26:28;19.70;67.70
6206;DHT22;3136;48.788;9.772;2022-08-20T13:28:53;19.70;69.90
6206;DHT22;3136;48.788;9.772;2022-08-20T13:31:19;19.70;72.70
6206;DHT22;3136;48.788;9.772;2022-08-20T13:33:45;19.70;69.40
6206;DHT22;3136;48.788;9.772;2022-08-20T13:36:11;19.60;65.20
6206;DHT22;3136;48.788;9.772;2022-08-20T13:38:36;19.60;61.70
6206;DHT22;3136;48.788;9.772;2022-08-20T13:41:02;19.50;64.60
6206;DHT22;3136;48.788;9.772;2022-08-20T13:43:27;19.50;66.00
6206;DHT22;3136;48.788;9.772;2022-08-20T13:45:53;19.60;69.40
6206;DHT22;3136;48.788;9.772;2022-08-20T13:48:18;19.70;72.30
6206;DHT22;3136;48.788;9.772;2022-08-20T13:50:44;19.80;69.10
6206;DHT22;3136;48.788;9.772;2022-08-20T13:53:10;19.80;68.10
6206;DHT22;3136;48.788;9.772;2022-08-20T13:55:35;19.90;66.20
6206;DHT22;3136;48.788;9.772;2022-08-20T13:58:04;19.90;69.70
6206;DHT22;3136;48.788;9.772;2022-08-20T14:00:32;19.90;66.10
6206;DHT22;3136;48.788;9.772;2022-08-20T14:03:03;20.20;69.90
6206;DHT22;3136;48.788;9.772;2022-08-20T14:05:30;20.10;67.10
6206;DHT22;3136;48.788;9.772;2022-08-20T14:10:31;20.00;61.30
6206;DHT22;3136;48.788;9.772;2022-08-20T14:12:59;20.00;59.10
6206;DHT22;3136;48.788;9.772;2022-08-20T14:15:25;20.00;55.90
6206;DHT22;3136;48.788;9.772;2022-08-20T14:17:53;20.00;53.80
6206;DHT22;3136;48.788;9.772;2022-08-20T14:20:22;20.10;59.30
6206;DHT22;3136;48.788;9.772;2022-08-20T14:22:48;20.20;52.20
6206;DHT22;3136;48.788;9.772;2022-08-20T14:25:16;20.30;55.30
6206;DHT22;3136;48.788;9.772;2022-08-20T14:27:42;20.50;54.90
6206;DHT22;3136;48.788;9.772;2022-08-20T14:30:12;20.70;57.70
6206;DHT22;3136;48.788;9.772;2022-08-20T14:32:38;20.90;53.90
6206;DHT22;3136;48.788;9.772;2022-08-20T14:35:05;21.00;48.40
6206;DHT22;3136;48.788;9.772;2022-08-20T14:37:51;21.20;47.70
6206;DHT22;3136;48.788;9.772;2022-08-20T14:40:19;21.20;40.70
6206;DHT22;3136;48.788;9.772;2022-08-20T14:42:46;21.20;28.40
6206;DHT22;3136;48.788;9.772;2022-08-20T14:45:12;21.20;28.70
6206;DHT22;3136;48.788;9.772;2022-08-20T14:47:41;21.10;28.20
6206;DHT22;3136;48.788;9.772;2022-08-20T14:50:14;21.10;31.00
6206;DHT22;3136;48.788;9.772;2022-08-20T14:52:40;21.20;35.20
6206;DHT22;3136;48.788;9.772;2022-08-20T14:55:09;21.40;30.20
6206;DHT22;3136;48.788;9.772;2022-08-20T14:57:36;21.40;31.50
6206;DHT22;3136;48.788;9.772;2022-08-20T15:00:03;21.50;28.10
6206;DHT22;3136;48.788;9.772;2022-08-20T15:02:32;21.40;31.40
6206;DHT22;3136;48.788;9.772;2022-08-20T15:04:57;21.30;24.70
6206;DHT22;3136;48.788;9.772;2022-08-20T15:07:29;21.20;27.70
6206;DHT22;3136;48.788;9.772;2022-08-20T15:09:55;21.10;31.00
6206;DHT22;3136;48.788;9.772;2022-08-20T15:12:22;21.00;31.40
6206;DHT22;3136;48.788;9.772;2022-08-20T15:14:47;20.90;29.80
6206;DHT22;3136;48.788;9.772;2022-08-20T15:17:22;20.80;37.00
6206;DHT22;3136;48.788;9.772;2022-08-20T15:19:48;20.80;38.30
6206;DHT22;3136;48.788;9.772;2022-08-20T15:22:14;20.80;42.40
6206;DHT22;3136;48.788;9.772;2022-08-20T15:24:40;20.70;37.30
6206;DHT22;3136;48.788;9.772;2022-08-20T15:27:18;20.80;42.00
6206;DHT22;3136;48.788;9.772;2022-08-20T15:29:45;20.80;48.40
6206;DHT22;3136;48.788;9.772;2022-08-20T15:32:10;20.80;48.40
6206;DHT22;3136;48.788;9.772;2022-08-20T15:34:37;20.80;45.30
6206;DHT22;3136;48.788;9.772;2022-08-20T15:37:09;20.70;47.40
6206;DHT22;3136;48.788;9.772;2022-08-20T15:39:38;20.60;40.70
6206;DHT22;3136;48.788;9.772;2022-08-20T15:42:05;20.60;41.60
6206;DHT22;3136;48.788;9.772;2022-08-20T15:44:31;20.60;42.70
6206;DHT22;3136;48.788;9.772;2022-08-20T15:49:43;20.60;49.00
6206;DHT22;3136;48.788;9.772;2022-08-20T15:52:09;20.80;48.20
6206;DHT22;3136;48.788;9.772;2022-08-20T15:54:36;20.90;53.80
6206;DHT22;3136;48.788;9.772;2022-08-20T15:59:57;21.10;26.50
6206;DHT22;3136;48.788;9.772;2022-08-20T16:02:55;21.10;10.60
6206;DHT22;3136;48.788;9.772;2022-08-20T16:06:00;21.00;13.00
6206;DHT22;3136;48.788;9.772;2022-08-20T16:14:02;20.80;12.80
6206;DHT22;3136;48.788;9.772;2022-08-20T16:16:35;20.80;13.10
6206;DHT22;3136;48.788;9.772;2022-08-20T16:19:03;20.70;14.70
6206;DHT22;3136;48.788;9.772;2022-08-20T16:21:33;20.80;19.80
6206;DHT22;3136;48.788;9.772;2022-08-20T16:24:04;21.00;20.90